sensor_id;sensor_type;location;lat;lon;timestamp;temperature;humidity
39931;DHT22;26635;-35.248;149.138;2023-07-16T00:00:52;8.00;91.10
39931;DHT22;26635;-35.248;149.138;2023-07-16T00:03:23;8.10;90.80
39931;DHT22;26635;-35.248;149.138;2023-07-16T00:05:53;8.30;90.40
39931;DHT22;26635;-35.248;149.138;2023-07-16T00:08:28;8.40;89.90
39931;DHT22;26635;-35.248;149.138;2023-07-16T00:10:59;8.50;89.70
39931;DHT22;26635;-35.248;149.138;2023-07-16T00:13:30;8.60;89.90
39931;DHT22;26635;-35.248;149.138;2023-07-16T00:16:01;8.70;89.30
39931;DHT22;26635;-35.248;149.138;2023-07-16T00:18:31;8.80;88.40
39931;DHT22;26635;-35.248;149.138;2023-07-16T00:21:03;9.00;88.20
39931;DHT22;26635;-35.248;149.138;2023-07-16T00:23:34;9.10;87.60
39931;DHT22;26635;-35.248;149.138;2023-07-16T00:26:05;9.20;88.20
39931;DHT22;26635;-35.248;149.138;2023-07-16T00:28:35;9.30;89.70
39931;DHT22;26635;-35.248;149.138;2023-07-16T00:31:06;9.50;88.60
39931;DHT22;26635;-35.248;149.138;2023-07-16T00:33:38;9.60;87.70
39931;DHT22;26635;-35.248;149.138;2023-07-16T00:36:10;9.70;87.70
39931;DHT22;26635;-35.248;149.138;2023-07-16T00:38:41;9.90;88.30
39931;DHT22;26635;-35.248;149.138;2023-07-16T00:41:13;10.00;87.40
39931;DHT22;26635;-35.248;149.138;2023-07-16T00:43:48;10.10;88.80
39931;DHT22;26635;-35.248;149.138;2023-07-16T00:46:25;10.20;88.30
39931;DHT22;26635;-35.248;149.138;2023-07-16T00:48:57;10.30;88.00
39931;DHT22;26635;-35.248;149.138;2023-07-16T00:51:29;10.40;87.00
39931;DHT22;26635;-35.248;149.138;2023-07-16T00:54:01;10.40;87.10
39931;DHT22;26635;-35.248;149.138;2023-07-16T00:56:32;10.50;87.00
39931;DHT22;26635;-35.248;149.138;2023-07-16T00:59:04;10.60;86.50
39931;DHT22;26635;-35.248;149.138;2023-07-16T01:01:35;10.70;87.00
39931;DHT22;26635;-35.248;149.138;2023-07-16T01:04:06;10.80;87.10
39931;DHT22;26635;-35.248;149.138;2023-07-16T01:06:43;10.90;87.10
39931;DHT22;26635;-35.248;149.138;2023-07-16T01:09:19;11.00;87.00
39931;DHT22;26635;-35.248;149.138;2023-07-16T01:11:51;11.10;85.70
39931;DHT22;26635;-35.248;149.138;2023-07-16T01:14:24;11.20;85.70
39931;DHT22;26635;-35.248;149.138;2023-07-16T01:16:56;11.20;86.70
39931;DHT22;26635;-35.248;149.138;2023-07-16T01:19:29;11.30;85.70
39931;DHT22;26635;-35.248;149.138;2023-07-16T01:30:33;11.90;85.80
39931;DHT22;26635;-35.248;149.138;2023-07-16T01:33:05;12.00;85.80
39931;DHT22;26635;-35.248;149.138;2023-07-16T01:35:41;12.10;85.80
39931;DHT22;26635;-35.248;149.138;2023-07-16T01:38:13;12.20;84.80
39931;DHT22;26635;-35.248;149.138;2023-07-16T01:40:59;12.30;85.20
39931;DHT22;26635;-35.248;149.138;2023-07-16T01:43:31;12.40;84.80
39931;DHT22;26635;-35.248;149.138;2023-07-16T01:46:03;12.50;84.50
39931;DHT22;26635;-35.248;149.138;2023-07-16T01:48:37;12.60;85.40
39931;DHT22;26635;-35.248;149.138;2023-07-16T01:51:10;12.70;85.30
39931;DHT22;26635;-35.248;149.138;2023-07-16T01:53:45;12.80;85.20
39931;DHT22;26635;-35.248;149.138;2023-07-16T01:56:16;12.90;85.30
39931;DHT22;26635;-35.248;149.138;2023-07-16T01:58:46;12.90;85.20
39931;DHT22;26635;-35.248;149.138;2023-07-16T02:01:17;13.00;84.80
39931;DHT22;26635;-35.248;149.138;2023-07-16T02:03:48;13.10;84.00
39931;DHT22;26635;-35.248;149.138;2023-07-16T02:06:19;13.00;84.60
39931;DHT22;26635;-35.248;149.138;2023-07-16T02:08:50;13.10;85.60
39931;DHT22;26635;-35.248;149.138;2023-07-16T02:11:22;13.20;85.10
39931;DHT22;26635;-35.248;149.138;2023-07-16T02:13:53;13.30;85.70
39931;DHT22;26635;-35.248;149.138;2023-07-16T02:16:24;13.40;85.50
39931;DHT22;26635;-35.248;149.138;2023-07-16T02:18:57;13.50;84.60
39931;DHT22;26635;-35.248;149.138;2023-07-16T02:21:28;13.60;84.90
39931;DHT22;26635;-35.248;149.138;2023-07-16T02:24:02;13.70;84.60
39931;DHT22;26635;-35.248;149.138;2023-07-16T02:26:33;13.80;84.30
39931;DHT22;26635;-35.248;149.138;2023-07-16T02:29:05;13.80;81.60
39931;DHT22;26635;-35.248;149.138;2023-07-16T02:31:41;13.80;81.80
39931;DHT22;26635;-35.248;149.138;2023-07-16T02:34:16;13.90;82.80
39931;DHT22;26635;-35.248;149.138;2023-07-16T02:36:48;13.90;82.60
39931;DHT22;26635;-35.248;149.138;2023-07-16T02:39:22;14.00;82.60
39931;DHT22;26635;-35.248;149.138;2023-07-16T02:41:53;14.00;81.80
39931;DHT22;26635;-35.248;149.138;2023-07-16T02:44:27;14.00;82.10
39931;DHT22;26635;-35.248;149.138;2023-07-16T02:46:58;14.20;82.70
39931;DHT22;26635;-35.248;149.138;2023-07-16T02:49:30;14.20;81.80
39931;DHT22;26635;-35.248;149.138;2023-07-16T02:52:05;14.30;81.10
39931;DHT22;26635;-35.248;149.138;2023-07-16T02:54:37;14.30;82.10
39931;DHT22;26635;-35.248;149.138;2023-07-16T02:57:07;14.40;81.50
39931;DHT22;26635;-35.248;149.138;2023-07-16T02:59:41;14.30;80.80
39931;DHT22;26635;-35.248;149.138;2023-07-16T03:02:12;14.40;80.80
39931;DHT22;26635;-35.248;149.138;2023-07-16T03:04:43;14.40;80.30
39931;DHT22;26635;-35.248;149.138;2023-07-16T03:07:15;14.50;79.40
39931;DHT22;26635;-35.248;149.138;2023-07-16T03:09:47;14.50;80.20
39931;DHT22;26635;-35.248;149.138;2023-07-16T03:12:18;14.50;80.00
39931;DHT22;26635;-35.248;149.138;2023-07-16T03:14:50;14.60;80.20
39931;DHT22;26635;-35.248;149.138;2023-07-16T03:17:24;14.60;79.80
39931;DHT22;26635;-35.248;149.138;2023-07-16T03:19:54;14.50;79.80
39931;DHT22;26635;-35.248;149.138;2023-07-16T03:22:25;14.60;80.30
39931;DHT22;26635;-35.248;149.138;2023-07-16T03:24:57;14.70;80.00
39931;DHT22;26635;-35.248;149.138;2023-07-16T03:27:28;14.80;79.50
39931;DHT22;26635;-35.248;149.138;2023-07-16T03:29:59;14.90;78.50
39931;DHT22;26635;-35.248;149.138;2023-07-16T03:32:31;14.90;78.00
39931;DHT22;26635;-35.248;149.138;2023-07-16T03:35:19;15.00;78.20
39931;DHT22;26635;-35.248;149.138;2023-07-16T03:37:53;15.10;76.50
39931;DHT22;26635;-35.248;149.138;2023-07-16T03:40:25;15.00;75.40
39931;DHT22;26635;-35.248;149.138;2023-07-16T03:42:56;15.00;77.50
39931;DHT22;26635;-35.248;149.138;2023-07-16T03:45:27;15.00;77.60
39931;DHT22;26635;-35.248;149.138;2023-07-16T03:47:58;15.10;78.40
39931;DHT22;26635;-35.248;149.138;2023-07-16T03:50:30;15.10;79.00
39931;DHT22;26635;-35.248;149.138;2023-07-16T03:53:01;15.20;78.30
39931;DHT22;26635;-35.248;149.138;2023-07-16T03:55:33;15.20;77.00
39931;DHT22;26635;-35.248;149.138;2023-07-16T03:58:05;15.30;76.60
39931;DHT22;26635;-35.248;149.138;2023-07-16T04:00:40;15.30;76.30
39931;DHT22;26635;-35.248;149.138;2023-07-16T04:03:11;15.30;75.60
39931;DHT22;26635;-35.248;149.138;2023-07-16T04:05:43;15.40;75.00
39931;DHT22;26635;-35.248;149.138;2023-07-16T04:08:15;15.40;74.10
39931;DHT22;26635;-35.248;149.138;2023-07-16T04:10:57;15.40;73.70
39931;DHT22;26635;-35.248;149.138;2023-07-16T04:13:28;15.50;74.50
39931;DHT22;26635;-35.248;149.138;2023-07-16T04:16:00;15.50;75.10
39931;DHT22;26635;-35.248;149.138;2023-07-16T04:18:32;15.50;74.30
39931;DHT22;26635;-35.248;149.138;2023-07-16T04:21:03;15.50;73.00
39931;DHT22;26635;-35.248;149.138;2023-07-16T04:23:35;15.50;73.60
39931;DHT22;26635;-35.248;149.138;2023-07-16T04:26:07;15.50;73.50
39931;DHT22;26635;-35.248;149.138;2023-07-16T04:28:40;15.50;73.30
39931;DHT22;26635;-35.248;149.138;2023-07-16T04:31:12;15.50;74.40
39931;DHT22;26635;-35.248;149.138;2023-07-16T04:33:44;15.50;74.30
39931;DHT22;26635;-35.248;149.138;2023-07-16T04:36:15;15.50;71.90
39931;DHT22;26635;-35.248;149.138;2023-07-16T04:38:46;15.50;72.10
39931;DHT22;26635;-35.248;149.138;2023-07-16T04:41:19;15.50;72.40
39931;DHT22;26635;-35.248;149.138;2023-07-16T04:43:50;15.50;71.10
39931;DHT22;26635;-35.248;149.138;2023-07-16T04:46:21;15.60;70.10
39931;DHT22;26635;-35.248;149.138;2023-07-16T04:48:53;15.60;69.70
39931;DHT22;26635;-35.248;149.138;2023-07-16T04:51:24;15.60;69.30
39931;DHT22;26635;-35.248;149.138;2023-07-16T04:53:55;15.60;68.60
39931;DHT22;26635;-35.248;149.138;2023-07-16T04:56:26;15.50;70.00
39931;DHT22;26635;-35.248;149.138;2023-07-16T04:58:56;15.50;70.10
39931;DHT22;26635;-35.248;149.138;2023-07-16T05:01:27;15.50;70.20
39931;DHT22;26635;-35.248;149.138;2023-07-16T05:03:58;15.40;69.70
39931;DHT22;26635;-35.248;149.138;2023-07-16T05:06:30;15.40;70.00
39931;DHT22;26635;-35.248;149.138;2023-07-16T05:09:01;15.40;70.60
39931;DHT22;26635;-35.248;149.138;2023-07-16T05:11:33;15.40;70.20
39931;DHT22;26635;-35.248;149.138;2023-07-16T05:14:06;15.40;70.40
39931;DHT22;26635;-35.248;149.138;2023-07-16T05:16:36;15.40;69.20
39931;DHT22;26635;-35.248;149.138;2023-07-16T05:19:07;15.30;68.70
39931;DHT22;26635;-35.248;149.138;2023-07-16T05:21:38;15.30;67.50
39931;DHT22;26635;-35.248;149.138;2023-07-16T05:24:09;15.30;67.00
39931;DHT22;26635;-35.248;149.138;2023-07-16T05:26:42;15.30;68.00
39931;DHT22;26635;-35.248;149.138;2023-07-16T05:29:14;15.20;67.80
39931;DHT22;26635;-35.248;149.138;2023-07-16T05:31:45;15.20;67.50
39931;DHT22;26635;-35.248;149.138;2023-07-16T05:34:16;15.20;67.80
39931;DHT22;26635;-35.248;149.138;2023-07-16T05:36:47;15.20;67.40
39931;DHT22;26635;-35.248;149.138;2023-07-16T05:39:17;15.10;66.30
39931;DHT22;26635;-35.248;149.138;2023-07-16T05:41:49;15.10;67.60
39931;DHT22;26635;-35.248;149.138;2023-07-16T05:44:20;15.00;67.10
39931;DHT22;26635;-35.248;149.138;2023-07-16T05:46:51;15.00;67.90
39931;DHT22;26635;-35.248;149.138;2023-07-16T05:49:25;15.00;67.70
39931;DHT22;26635;-35.248;149.138;2023-07-16T05:51:56;14.90;68.10
39931;DHT22;26635;-35.248;149.138;2023-07-16T05:54:27;14.80;68.50
39931;DHT22;26635;-35.248;149.138;2023-07-16T05:56:58;14.80;68.40
39931;DHT22;26635;-35.248;149.138;2023-07-16T05:59:31;14.70;68.50
39931;DHT22;26635;-35.248;149.138;2023-07-16T06:02:06;14.70;67.50
39931;DHT22;26635;-35.248;149.138;2023-07-16T06:04:37;14.60;68.40
39931;DHT22;26635;-35.248;149.138;2023-07-16T06:07:09;14.60;69.20
39931;DHT22;26635;-35.248;149.138;2023-07-16T06:09:40;14.50;69.30
39931;DHT22;26635;-35.248;149.138;2023-07-16T06:12:11;14.50;68.80
39931;DHT22;26635;-35.248;149.138;2023-07-16T06:14:44;14.40;69.00
39931;DHT22;26635;-35.248;149.138;2023-07-16T06:17:16;14.30;69.80
39931;DHT22;26635;-35.248;149.138;2023-07-16T06:19:47;14.20;69.60
39931;DHT22;26635;-35.248;149.138;2023-07-16T06:22:20;14.20;69.90
39931;DHT22;26635;-35.248;149.138;2023-07-16T06:24:50;14.10;70.00
39931;DHT22;26635;-35.248;149.138;2023-07-16T06:27:22;14.10;70.30
39931;DHT22;26635;-35.248;149.138;2023-07-16T06:29:54;14.00;70.20
39931;DHT22;26635;-35.248;149.138;2023-07-16T06:32:25;13.90;70.90
39931;DHT22;26635;-35.248;149.138;2023-07-16T06:34:56;13.80;70.50
39931;DHT22;26635;-35.248;149.138;2023-07-16T06:37:27;13.80;70.70
39931;DHT22;26635;-35.248;149.138;2023-07-16T06:39:58;13.70;70.70
39931;DHT22;26635;-35.248;149.138;2023-07-16T06:42:29;13.60;70.90
39931;DHT22;26635;-35.248;149.138;2023-07-16T06:45:00;13.50;71.10
39931;DHT22;26635;-35.248;149.138;2023-07-16T06:47:32;13.50;71.30
39931;DHT22;26635;-35.248;149.138;2023-07-16T06:50:03;13.40;71.70
39931;DHT22;26635;-35.248;149.138;2023-07-16T06:52:34;13.30;72.20
39931;DHT22;26635;-35.248;149.138;2023-07-16T06:55:06;13.20;72.00
39931;DHT22;26635;-35.248;149.138;2023-07-16T06:57:38;13.10;72.30
39931;DHT22;26635;-35.248;149.138;2023-07-16T07:00:10;13.00;72.50
39931;DHT22;26635;-35.248;149.138;2023-07-16T07:02:41;12.90;73.70
39931;DHT22;26635;-35.248;149.138;2023-07-16T07:05:14;12.80;74.40
39931;DHT22;26635;-35.248;149.138;2023-07-16T07:07:46;12.70;74.80
39931;DHT22;26635;-35.248;149.138;2023-07-16T07:10:17;12.50;75.80
39931;DHT22;26635;-35.248;149.138;2023-07-16T07:12:47;12.40;76.70
39931;DHT22;26635;-35.248;149.138;2023-07-16T07:15:19;12.30;76.50
39931;DHT22;26635;-35.248;149.138;2023-07-16T07:17:51;12.20;77.10
39931;DHT22;26635;-35.248;149.138;2023-07-16T07:20:22;12.00;77.80
39931;DHT22;26635;-35.248;149.138;2023-07-16T07:22:52;11.90;78.20
39931;DHT22;26635;-35.248;149.138;2023-07-16T07:25:23;11.80;78.70
39931;DHT22;26635;-35.248;149.138;2023-07-16T07:27:54;11.70;79.40
39931;DHT22;26635;-35.248;149.138;2023-07-16T07:30:26;11.60;79.50
39931;DHT22;26635;-35.248;149.138;2023-07-16T07:33:00;11.40;79.40
39931;DHT22;26635;-35.248;149.138;2023-07-16T07:35:39;11.40;80.10
39931;DHT22;26635;-35.248;149.138;2023-07-16T07:38:10;11.30;80.80
39931;DHT22;26635;-35.248;149.138;2023-07-16T07:40:44;11.20;80.80
39931;DHT22;26635;-35.248;149.138;2023-07-16T07:43:14;11.10;81.90
39931;DHT22;26635;-35.248;149.138;2023-07-16T07:45:45;11.00;82.00
39931;DHT22;26635;-35.248;149.138;2023-07-16T07:48:16;10.90;82.60
39931;DHT22;26635;-35.248;149.138;2023-07-16T07:50:47;10.80;82.80
39931;DHT22;26635;-35.248;149.138;2023-07-16T07:53:20;10.70;83.30
39931;DHT22;26635;-35.248;149.138;2023-07-16T07:55:51;10.60;83.80
39931;DHT22;26635;-35.248;149.138;2023-07-16T07:58:22;10.50;84.00
39931;DHT22;26635;-35.248;149.138;2023-07-16T08:00:53;10.40;83.70
39931;DHT22;26635;-35.248;149.138;2023-07-16T08:03:39;10.30;83.80
39931;DHT22;26635;-35.248;149.138;2023-07-16T08:06:13;10.20;84.50
39931;DHT22;26635;-35.248;149.138;2023-07-16T08:08:56;10.10;85.20
39931;DHT22;26635;-35.248;149.138;2023-07-16T08:11:33;10.10;85.20
39931;DHT22;26635;-35.248;149.138;2023-07-16T08:14:03;10.00;86.10
39931;DHT22;26635;-35.248;149.138;2023-07-16T08:16:38;9.90;85.70
39931;DHT22;26635;-35.248;149.138;2023-07-16T08:19:10;9.80;85.40
39931;DHT22;26635;-35.248;149.138;2023-07-16T08:21:40;9.70;85.50
39931;DHT22;26635;-35.248;149.138;2023-07-16T08:24:11;9.70;85.60
39931;DHT22;26635;-35.248;149.138;2023-07-16T08:26:41;9.60;86.90
39931;DHT22;26635;-35.248;149.138;2023-07-16T08:29:12;9.50;87.10
39931;DHT22;26635;-35.248;149.138;2023-07-16T08:31:42;9.40;87.20
39931;DHT22;26635;-35.248;149.138;2023-07-16T08:34:13;9.40;87.20
39931;DHT22;26635;-35.248;149.138;2023-07-16T08:36:44;9.30;86.80
39931;DHT22;26635;-35.248;149.138;2023-07-16T08:39:14;9.20;88.20
39931;DHT22;26635;-35.248;149.138;2023-07-16T08:41:51;9.00;88.90
39931;DHT22;26635;-35.248;149.138;2023-07-16T08:44:21;8.90;89.20
39931;DHT22;26635;-35.248;149.138;2023-07-16T08:46:52;8.90;89.20
39931;DHT22;26635;-35.248;149.138;2023-07-16T08:49:23;8.80;89.30
39931;DHT22;26635;-35.248;149.138;2023-07-16T08:51:56;8.80;89.70
39931;DHT22;26635;-35.248;149.138;2023-07-16T08:54:28;8.70;90.00
39931;DHT22;26635;-35.248;149.138;2023-07-16T08:56:58;8.60;89.60
39931;DHT22;26635;-35.248;149.138;2023-07-16T08:59:30;8.60;89.30
39931;DHT22;26635;-35.248;149.138;2023-07-16T09:02:02;8.60;89.70
39931;DHT22;26635;-35.248;149.138;2023-07-16T09:04:33;8.50;90.00
39931;DHT22;26635;-35.248;149.138;2023-07-16T09:07:04;8.40;90.30
39931;DHT22;26635;-35.248;149.138;2023-07-16T09:09:36;8.30;90.20
39931;DHT22;26635;-35.248;149.138;2023-07-16T09:12:11;8.20;90.10
39931;DHT22;26635;-35.248;149.138;2023-07-16T09:14:42;8.20;90.10
39931;DHT22;26635;-35.248;149.138;2023-07-16T09:17:13;8.10;90.10
39931;DHT22;26635;-35.248;149.138;2023-07-16T09:19:50;8.10;90.10
39931;DHT22;26635;-35.248;149.138;2023-07-16T09:22:22;8.00;90.40
39931;DHT22;26635;-35.248;149.138;2023-07-16T09:24:52;8.00;90.50
39931;DHT22;26635;-35.248;149.138;2023-07-16T09:27:32;8.00;90.70
39931;DHT22;26635;-35.248;149.138;2023-07-16T09:30:04;7.90;90.40
39931;DHT22;26635;-35.248;149.138;2023-07-16T09:32:36;7.90;90.60
39931;DHT22;26635;-35.248;149.138;2023-07-16T09:35:13;7.90;90.70
39931;DHT22;26635;-35.248;149.138;2023-07-16T09:37:47;7.80;90.70
39931;DHT22;26635;-35.248;149.138;2023-07-16T09:40:18;7.80;90.70
39931;DHT22;26635;-35.248;149.138;2023-07-16T09:42:52;7.80;90.80
39931;DHT22;26635;-35.248;149.138;2023-07-16T09:45:24;7.70;90.60
39931;DHT22;26635;-35.248;149.138;2023-07-16T09:48:03;7.70;91.10
39931;DHT22;26635;-35.248;149.138;2023-07-16T09:50:34;7.70;91.10
39931;DHT22;26635;-35.248;149.138;2023-07-16T09:53:08;7.60;91.30
39931;DHT22;26635;-35.248;149.138;2023-07-16T09:55:45;7.60;91.50
39931;DHT22;26635;-35.248;149.138;2023-07-16T09:58:22;7.50;90.90
39931;DHT22;26635;-35.248;149.138;2023-07-16T10:01:06;7.50;91.20
39931;DHT22;26635;-35.248;149.138;2023-07-16T10:04:09;7.40;91.30
39931;DHT22;26635;-35.248;149.138;2023-07-16T10:07:03;7.40;91.10
39931;DHT22;26635;-35.248;149.138;2023-07-16T10:09:50;7.30;91.20
39931;DHT22;26635;-35.248;149.138;2023-07-16T10:12:56;7.30;91.20
39931;DHT22;26635;-35.248;149.138;2023-07-16T10:15:31;7.20;91.30
39931;DHT22;26635;-35.248;149.138;2023-07-16T10:18:01;7.20;91.70
39931;DHT22;26635;-35.248;149.138;2023-07-16T10:20:41;7.20;91.50
39931;DHT22;26635;-35.248;149.138;2023-07-16T10:23:25;7.20;91.20
39931;DHT22;26635;-35.248;149.138;2023-07-16T10:30:14;7.00;91.70
39931;DHT22;26635;-35.248;149.138;2023-07-16T10:33:15;7.00;91.60
39931;DHT22;26635;-35.248;149.138;2023-07-16T10:36:06;6.90;91.80
39931;DHT22;26635;-35.248;149.138;2023-07-16T10:39:04;6.80;91.40
39931;DHT22;26635;-35.248;149.138;2023-07-16T10:41:35;6.80;92.00
39931;DHT22;26635;-35.248;149.138;2023-07-16T10:44:13;6.70;92.10
39931;DHT22;26635;-35.248;149.138;2023-07-16T10:46:46;6.70;91.80
39931;DHT22;26635;-35.248;149.138;2023-07-16T10:49:28;6.70;91.90
39931;DHT22;26635;-35.248;149.138;2023-07-16T10:52:04;6.60;92.10
39931;DHT22;26635;-35.248;149.138;2023-07-16T10:54:50;6.50;92.00
39931;DHT22;26635;-35.248;149.138;2023-07-16T10:57:25;6.50;92.10
39931;DHT22;26635;-35.248;149.138;2023-07-16T11:01:04;6.50;92.80
39931;DHT22;26635;-35.248;149.138;2023-07-16T11:03:52;6.40;92.20
39931;DHT22;26635;-35.248;149.138;2023-07-16T11:06:23;6.40;92.40
39931;DHT22;26635;-35.248;149.138;2023-07-16T11:08:54;6.30;92.40
39931;DHT22;26635;-35.248;149.138;2023-07-16T11:11:49;6.30;92.60
39931;DHT22;26635;-35.248;149.138;2023-07-16T11:14:19;6.30;92.50
39931;DHT22;26635;-35.248;149.138;2023-07-16T11:17:18;6.20;93.00
39931;DHT22;26635;-35.248;149.138;2023-07-16T11:20:09;6.20;93.20
39931;DHT22;26635;-35.248;149.138;2023-07-16T11:22:40;6.10;92.80
39931;DHT22;26635;-35.248;149.138;2023-07-16T11:25:13;6.10;92.90
39931;DHT22;26635;-35.248;149.138;2023-07-16T11:27:44;6.10;92.70
39931;DHT22;26635;-35.248;149.138;2023-07-16T11:30:15;6.00;92.90
39931;DHT22;26635;-35.248;149.138;2023-07-16T11:32:47;6.00;92.50
39931;DHT22;26635;-35.248;149.138;2023-07-16T11:35:19;6.00;92.80
39931;DHT22;26635;-35.248;149.138;2023-07-16T11:37:52;6.00;92.80
39931;DHT22;26635;-35.248;149.138;2023-07-16T11:40:25;6.00;93.00
39931;DHT22;26635;-35.248;149.138;2023-07-16T11:42:56;5.90;93.20
39931;DHT22;26635;-35.248;149.138;2023-07-16T11:45:28;5.90;92.90
39931;DHT22;26635;-35.248;149.138;2023-07-16T11:48:01;5.90;92.80
39931;DHT22;26635;-35.248;149.138;2023-07-16T11:50:33;5.80;92.40
39931;DHT22;26635;-35.248;149.138;2023-07-16T11:53:04;5.90;92.60
39931;DHT22;26635;-35.248;149.138;2023-07-16T11:55:38;5.80;92.60
39931;DHT22;26635;-35.248;149.138;2023-07-16T11:58:08;5.70;92.40
39931;DHT22;26635;-35.248;149.138;2023-07-16T12:00:39;5.70;92.70
39931;DHT22;26635;-35.248;149.138;2023-07-16T12:03:10;5.60;92.80
39931;DHT22;26635;-35.248;149.138;2023-07-16T12:05:41;5.60;93.20
39931;DHT22;26635;-35.248;149.138;2023-07-16T12:08:30;5.60;93.20
39931;DHT22;26635;-35.248;149.138;2023-07-16T12:11:01;5.60;93.40
39931;DHT22;26635;-35.248;149.138;2023-07-16T12:13:31;5.50;92.80
39931;DHT22;26635;-35.248;149.138;2023-07-16T12:16:06;5.50;92.90
39931;DHT22;26635;-35.248;149.138;2023-07-16T12:18:44;5.40;93.00
39931;DHT22;26635;-35.248;149.138;2023-07-16T12:21:15;5.40;93.20
39931;DHT22;26635;-35.248;149.138;2023-07-16T12:23:45;5.30;93.20
39931;DHT22;26635;-35.248;149.138;2023-07-16T12:26:19;5.30;92.90
39931;DHT22;26635;-35.248;149.138;2023-07-16T12:28:50;5.20;92.20
39931;DHT22;26635;-35.248;149.138;2023-07-16T12:31:24;5.10;92.30
39931;DHT22;26635;-35.248;149.138;2023-07-16T12:33:58;5.10;93.10
39931;DHT22;26635;-35.248;149.138;2023-07-16T12:37:08;5.00;93.00
39931;DHT22;26635;-35.248;149.138;2023-07-16T12:40:34;5.00;92.80
39931;DHT22;26635;-35.248;149.138;2023-07-16T12:43:11;5.00;93.00
39931;DHT22;26635;-35.248;149.138;2023-07-16T12:45:43;5.00;93.20
39931;DHT22;26635;-35.248;149.138;2023-07-16T12:48:14;4.90;93.20
39931;DHT22;26635;-35.248;149.138;2023-07-16T12:50:44;4.90;93.30
39931;DHT22;26635;-35.248;149.138;2023-07-16T12:53:20;4.90;93.40
39931;DHT22;26635;-35.248;149.138;2023-07-16T12:55:51;4.90;93.30
39931;DHT22;26635;-35.248;149.138;2023-07-16T12:58:23;4.80;92.90
39931;DHT22;26635;-35.248;149.138;2023-07-16T13:00:53;4.80;93.10
39931;DHT22;26635;-35.248;149.138;2023-07-16T13:03:23;4.80;93.20
39931;DHT22;26635;-35.248;149.138;2023-07-16T13:05:54;4.80;93.30
39931;DHT22;26635;-35.248;149.138;2023-07-16T13:08:48;4.70;93.00
39931;DHT22;26635;-35.248;149.138;2023-07-16T13:11:19;4.70;93.10
39931;DHT22;26635;-35.248;149.138;2023-07-16T13:13:52;4.70;93.20
39931;DHT22;26635;-35.248;149.138;2023-07-16T13:16:27;4.60;93.20
39931;DHT22;26635;-35.248;149.138;2023-07-16T13:19:08;4.60;94.10
39931;DHT22;26635;-35.248;149.138;2023-07-16T13:21:39;4.60;93.40
39931;DHT22;26635;-35.248;149.138;2023-07-16T13:24:28;4.60;94.20
39931;DHT22;26635;-35.248;149.138;2023-07-16T13:31:52;4.50;93.20
39931;DHT22;26635;-35.248;149.138;2023-07-16T23:21:10;4.60;95.90
39931;DHT22;26635;-35.248;149.138;2023-07-16T23:23:44;4.70;96.10
39931;DHT22;26635;-35.248;149.138;2023-07-16T23:26:14;4.80;96.20
39931;DHT22;26635;-35.248;149.138;2023-07-16T23:28:45;4.90;96.20
39931;DHT22;26635;-35.248;149.138;2023-07-16T23:31:17;5.00;95.80
39931;DHT22;26635;-35.248;149.138;2023-07-16T23:33:48;5.10;95.80
39931;DHT22;26635;-35.248;149.138;2023-07-16T23:36:22;5.30;95.80
39931;DHT22;26635;-35.248;149.138;2023-07-16T23:43:10;5.50;94.90
39931;DHT22;26635;-35.248;149.138;2023-07-16T23:45:51;5.70;94.90
39931;DHT22;26635;-35.248;149.138;2023-07-16T23:48:22;5.80;94.50
39931;DHT22;26635;-35.248;149.138;2023-07-16T23:51:13;5.90;94.40
39931;DHT22;26635;-35.248;149.138;2023-07-16T23:53:45;6.00;94.60
39931;DHT22;26635;-35.248;149.138;2023-07-16T23:56:16;6.20;94.10
39931;DHT22;26635;-35.248;149.138;2023-07-16T23:58:48;6.30;94.00
